Tropical Cyclones
[Index]
Main Index Home Page Stock Weather Photos Extreme Storms Discussion Storm News and Storm Chasing Reports Tropical Cyclones / Hurricanes / Typhoons Weather Data and Links Wild Fires / Bushfires Weather Observation Techniques Weather Picture Catalogue Tornado Pictures and Reports Stock Video Footage and DVDs for sale
Season 2008-2009 Tropical Cyclone FREDDY Track Map
Season 2008-2009 Summaries: [BoM-AU] [JTWC-AU] [JTWC-SIO] [JTWC-SPAC] [JTWC-SH]
<<- Previous TC | JTWC 2008-2009 Season | Next TC ->>

click for intensity scale information  Lat/long Grid: Show Hide

 Date Labels: Show Hide

Joint Typhoon Warning Centre Cyclone Data

Name: FREDDY

04 Feb 2009 06:00 UTC to 15 Feb 2009 12:00 UTC

    date/time    lat    long     hPa   cat  kts
2009-02-04 06   14.9   119.7    1010         15          
2009-02-04 12   15.8   119.3    1010         15          
2009-02-04 18   15.9   118.6    1010         15          
2009-02-05 00   15.9   117.9    1004         15          
2009-02-05 06   16.1   117.2    1004         15          
2009-02-05 12   16.3   116.4    1002         25          
2009-02-05 18   17.0   115.4    1004         25          
2009-02-06 00   16.5   114.3     996         30          
2009-02-06 06   16.2   113.8    1000         30          
2009-02-06 12   16.0   113.6    1000         30          
2009-02-06 18   16.1   113.3     996         35          
2009-02-07 00   16.3   113.2     996         35          
2009-02-07 06   16.5   112.8    1000         30          
2009-02-07 12   16.3   112.0     996         35          
2009-02-07 18   15.9   111.2     989    1    45          
2009-02-08 00   15.9   110.3     985    1    50          
2009-02-08 00   15.9   110.3     985    1    50          
2009-02-08 06   16.0   109.4     982    2    55          
2009-02-08 06   16.0   109.4     982    2    55          
2009-02-08 12   16.5   108.6     985    1    50          
2009-02-08 18   17.0   107.8     989    1    45          
2009-02-09 00   17.6   106.8     993    1    40          
2009-02-09 06   18.3   105.6     993    1    40          
2009-02-09 12   18.9   104.5     996         35          
2009-02-09 18   19.4   103.4     996         35          
2009-02-10 00   20.0   102.2     996         35          
2009-02-10 06   20.7   101.0     996         35          
2009-02-10 12   21.4   100.0    1000         30          
2009-02-10 18   21.6    99.1    1004         25          
2009-02-11 00   21.6    98.1    1007         20          
2009-02-11 06   21.6    97.4    1007         20          
2009-02-11 12   21.5    96.9    1007         20          
2009-02-11 18   21.1    96.3    1007         20          
2009-02-12 00   20.7    95.5    1007         20          
2009-02-12 06   20.3    94.6    1007         20          
2009-02-12 12   19.8    93.5    1007         20          
2009-02-12 18   19.6    91.8    1007         20          
2009-02-13 00   19.3    90.1    1010         15          
2009-02-13 06   18.7    88.9    1010         15          
2009-02-13 12   18.6    87.5    1010         15          
2009-02-13 18   18.5    85.6    1010         15          
2009-02-14 00   18.5    83.7    1010         15          
2009-02-14 06   18.3    82.0    1010         15          
2009-02-14 12   18.3    80.4    1010         15          
2009-02-14 18   18.2    78.8    1010         15          
2009-02-15 00   17.9    77.1    1010         15          
2009-02-15 06   17.8    74.7    1010         15          
2009-02-15 12   18.1    72.3    1010         15          
Winds are 1-min average.

Tropical cyclone tracks developed by Michael Bath using data from the Joint Typhoon Warning Centre Best Tracks and Google Maps.


[Australian Severe Weather index] [Copyright Notice] [Email Contacts] [Search This Site] [Privacy Policy]
Document: tropical_cyclone_freddy.htm Updated: 28 June 2017